createdAt,value
2019-05-18T00:00:55.484Z,12.64
2019-05-18T00:03:24.134Z,12.71
2019-05-18T00:05:52.756Z,12.72
2019-05-18T00:08:21.450Z,12.76
2019-05-18T00:10:50.088Z,12.91
2019-05-18T00:13:18.752Z,12.84
2019-05-18T00:15:47.313Z,12.76
2019-05-18T00:18:15.941Z,12.79
2019-05-18T00:20:44.617Z,12.59
2019-05-18T00:23:13.300Z,12.61
2019-05-18T00:25:41.969Z,12.54
2019-05-18T00:28:10.604Z,12.61
2019-05-18T00:30:39.289Z,12.82
2019-05-18T00:33:07.939Z,12.68
2019-05-18T00:35:36.583Z,12.68
2019-05-18T00:38:05.279Z,12.69
2019-05-18T00:40:33.914Z,12.70
2019-05-18T00:43:02.548Z,12.72
2019-05-18T00:45:31.298Z,12.67
2019-05-18T00:47:59.863Z,12.48
2019-05-18T00:50:28.587Z,12.52
2019-05-18T00:52:57.222Z,12.62
2019-05-18T00:55:25.949Z,12.62
2019-05-18T00:57:54.526Z,12.64
2019-05-18T01:00:23.226Z,12.49
2019-05-18T01:02:51.858Z,12.42
2019-05-18T01:05:20.457Z,12.47
2019-05-18T01:07:49.104Z,12.42
2019-05-18T01:10:17.847Z,12.47
2019-05-18T01:12:46.478Z,12.50
2019-05-18T01:15:54.889Z,12.67
2019-05-18T01:18:23.564Z,12.59
2019-05-18T01:23:41.538Z,12.60
2019-05-18T01:26:10.223Z,12.58
2019-05-18T01:28:38.781Z,12.54
2019-05-18T01:31:07.462Z,12.53
2019-05-18T01:33:36.120Z,12.56
2019-05-18T01:36:04.799Z,12.55
2019-05-18T01:38:33.443Z,12.46
2019-05-18T01:41:02.072Z,12.47
2019-05-18T01:43:30.707Z,12.41
2019-05-18T01:45:59.346Z,12.43
2019-05-18T01:48:28.016Z,12.47
2019-05-18T01:50:56.665Z,12.56
2019-05-18T01:53:25.344Z,12.49
2019-05-18T01:55:53.927Z,12.48
2019-05-18T01:58:22.615Z,12.52
2019-05-18T02:00:51.242Z,12.46
2019-05-18T02:03:19.867Z,12.42
2019-05-18T02:05:48.516Z,12.37
2019-05-18T02:08:17.049Z,12.41
2019-05-18T02:10:45.636Z,12.32
2019-05-18T02:13:14.244Z,12.20
2019-05-18T02:15:42.935Z,12.16
2019-05-18T02:18:11.503Z,12.07
2019-05-18T02:20:40.101Z,12.08
2019-05-18T02:23:08.744Z,12.18
2019-05-18T02:25:37.379Z,12.29
2019-05-18T02:30:41.509Z,12.14
2019-05-18T02:33:10.157Z,12.09
2019-05-18T02:35:38.770Z,12.22
2019-05-18T02:38:26.458Z,12.26
2019-05-18T02:40:55.197Z,12.05
2019-05-18T02:43:23.827Z,11.95
2019-05-18T02:45:52.511Z,12.06
2019-05-18T02:48:21.141Z,12.00
2019-05-18T02:50:49.735Z,11.89
2019-05-18T02:53:18.385Z,11.95
2019-05-18T02:55:47.051Z,11.91
2019-05-18T02:58:15.688Z,11.57
2019-05-18T03:00:44.363Z,11.57
2019-05-18T03:03:13.042Z,11.56
2019-05-18T03:08:49.860Z,11.61
2019-05-18T03:11:18.470Z,11.69
2019-05-18T03:13:47.156Z,11.73
2019-05-18T03:16:15.798Z,11.77
2019-05-18T03:18:44.487Z,11.67
2019-05-18T03:21:13.113Z,11.59
2019-05-18T03:23:41.789Z,11.55
2019-05-18T03:26:10.439Z,11.56
2019-05-18T03:28:39.060Z,11.67
2019-05-18T03:31:07.607Z,11.54
2019-05-18T03:33:36.411Z,11.40
2019-05-18T03:36:05.075Z,11.34
2019-05-18T03:38:33.741Z,11.37
2019-05-18T03:41:02.428Z,11.41
2019-05-18T03:43:31.074Z,11.42
2019-05-18T03:45:59.776Z,11.36
2019-05-18T03:48:28.460Z,11.42
2019-05-18T03:50:57.161Z,11.46
2019-05-18T03:53:45.063Z,11.44
2019-05-18T03:56:13.748Z,11.44
2019-05-18T03:58:42.242Z,11.36
2019-05-18T04:01:10.913Z,11.28
2019-05-18T04:03:39.554Z,11.22
2019-05-18T04:06:08.171Z,11.27
2019-05-18T04:08:36.822Z,11.30
2019-05-18T04:11:05.518Z,11.32
2019-05-18T04:13:34.193Z,11.31
2019-05-18T04:16:02.832Z,11.33
2019-05-18T04:18:31.488Z,11.40
2019-05-18T04:21:39.907Z,11.41
2019-05-18T04:24:08.591Z,11.32
2019-05-18T04:29:32.092Z,11.35
2019-05-18T04:32:00.671Z,11.41
2019-05-18T04:34:29.294Z,11.26
2019-05-18T04:36:58.010Z,11.29
2019-05-18T04:39:26.767Z,11.26
2019-05-18T04:42:35.193Z,11.32
2019-05-18T04:45:23.134Z,11.33
2019-05-18T04:47:51.784Z,11.34
2019-05-18T04:50:20.468Z,11.47
2019-05-18T04:52:49.137Z,11.51
2019-05-18T04:55:17.788Z,11.56
2019-05-18T04:57:46.477Z,11.64
2019-05-18T05:00:15.245Z,11.69
2019-05-18T05:02:43.925Z,11.77
2019-05-18T05:05:12.583Z,11.87
2019-05-18T05:07:41.260Z,12.03
2019-05-18T05:10:10.113Z,12.02
2019-05-18T05:12:38.772Z,12.20
2019-05-18T05:15:07.640Z,12.44
2019-05-18T05:17:36.264Z,12.65
2019-05-18T05:20:44.698Z,12.89
2019-05-18T05:23:13.271Z,12.98
2019-05-18T05:25:41.962Z,13.20
2019-05-18T05:28:10.654Z,13.29
2019-05-18T05:30:39.170Z,13.22
2019-05-18T05:33:07.780Z,13.30
2019-05-18T05:35:37.815Z,13.45
2019-05-18T05:38:06.819Z,13.45
2019-05-18T05:40:35.509Z,13.65
2019-05-18T05:43:04.188Z,13.76
2019-05-18T05:45:32.835Z,13.83
2019-05-18T05:48:01.536Z,14.06
2019-05-18T05:50:35.912Z,14.15
2019-05-18T05:53:00.554Z,14.09
2019-05-18T05:55:29.183Z,14.34
2019-05-18T05:57:57.757Z,14.46
2019-05-18T06:00:26.451Z,14.67
2019-05-18T06:02:55.092Z,14.81
2019-05-18T06:05:23.772Z,14.54
2019-05-18T06:07:52.401Z,14.74
2019-05-18T06:10:21.098Z,14.68
2019-05-18T06:12:49.739Z,14.50
2019-05-18T06:15:18.530Z,14.65
2019-05-18T06:17:47.242Z,14.81
2019-05-18T06:23:24.090Z,15.03
2019-05-18T06:25:52.742Z,14.84
2019-05-18T06:28:21.431Z,15.08
2019-05-18T06:30:50.084Z,15.38
2019-05-18T06:33:18.693Z,15.68
2019-05-18T06:35:47.260Z,15.77
2019-05-18T06:38:15.941Z,16.15
2019-05-18T06:40:44.585Z,15.83
2019-05-18T06:43:13.269Z,16.32
2019-05-18T06:45:41.961Z,16.60
2019-05-18T06:48:10.619Z,16.34
2019-05-18T06:50:39.273Z,17.04
2019-05-18T06:53:07.897Z,18.43
2019-05-18T06:59:11.531Z,21.12
2019-05-18T07:01:40.184Z,22.40
2019-05-18T07:04:08.847Z,21.51
2019-05-18T07:06:37.512Z,19.15
2019-05-18T07:09:45.951Z,19.03
2019-05-18T07:12:14.623Z,19.60
2019-05-18T07:14:43.258Z,19.52
2019-05-18T07:17:11.954Z,19.87
2019-05-18T07:19:40.602Z,21.44
2019-05-18T07:22:09.285Z,23.07
2019-05-18T07:24:37.931Z,23.34
2019-05-18T07:27:06.616Z,23.90
2019-05-18T07:29:35.185Z,24.47
2019-05-18T07:32:03.860Z,24.12
2019-05-18T07:34:32.525Z,24.95
2019-05-18T07:37:01.579Z,25.38
2019-05-18T07:39:30.248Z,25.63
2019-05-18T07:42:10.639Z,23.46
2019-05-18T07:47:30.571Z,24.14
2019-05-18T07:49:59.121Z,24.33
2019-05-18T07:52:27.775Z,25.08
2019-05-18T07:54:56.417Z,25.12
2019-05-18T07:57:25.101Z,24.51
2019-05-18T07:59:53.649Z,22.76
2019-05-18T08:02:22.135Z,21.51
2019-05-18T08:04:50.845Z,20.83
2019-05-18T08:07:19.520Z,21.24
2019-05-18T08:09:48.088Z,21.84
2019-05-18T08:12:16.711Z,22.43
2019-05-18T08:14:45.324Z,22.12
2019-05-18T08:17:13.967Z,23.16
2019-05-18T08:19:42.658Z,23.46
2019-05-18T08:22:11.349Z,24.02
2019-05-18T08:24:39.928Z,23.75
2019-05-18T08:27:08.599Z,23.59
2019-05-18T08:29:37.285Z,23.42
2019-05-18T08:32:05.868Z,22.47
2019-05-18T08:34:34.533Z,22.55
2019-05-18T08:37:03.168Z,21.11
2019-05-18T08:39:31.859Z,20.43
2019-05-18T08:42:00.535Z,20.97
2019-05-18T08:44:29.141Z,20.53
2019-05-18T08:46:57.743Z,20.19
2019-05-18T08:49:26.378Z,20.09
2019-05-18T08:52:07.470Z,20.11
2019-05-18T08:54:25.390Z,20.09
2019-05-18T08:56:53.964Z,20.07
2019-05-18T08:59:22.693Z,20.30
2019-05-18T09:01:51.188Z,20.73
2019-05-18T09:04:19.710Z,21.03
2019-05-18T09:06:48.314Z,20.94
2019-05-18T09:09:16.964Z,21.04
2019-05-18T09:11:45.648Z,21.41
2019-05-18T09:14:14.301Z,21.69
2019-05-18T09:16:42.915Z,21.31
2019-05-18T09:19:11.586Z,21.41
2019-05-18T09:21:40.262Z,21.57
2019-05-18T09:24:08.913Z,21.22
2019-05-18T09:26:37.604Z,20.93
2019-05-18T09:32:14.351Z,21.91
2019-05-18T09:34:42.991Z,22.11
2019-05-18T09:37:11.605Z,22.05
2019-05-18T09:39:40.234Z,22.08
2019-05-18T09:42:08.797Z,22.06
2019-05-18T09:44:37.498Z,22.39
2019-05-18T09:47:06.172Z,22.44
2019-05-18T09:49:34.812Z,22.24
2019-05-18T09:52:03.573Z,22.25
2019-05-18T09:54:32.295Z,22.15
2019-05-18T09:57:00.945Z,21.81
2019-05-18T09:59:29.533Z,22.33
2019-05-18T10:01:58.089Z,22.31
2019-05-18T10:04:26.776Z,22.25
2019-05-18T10:06:55.498Z,22.98
2019-05-18T10:09:24.167Z,22.90
2019-05-18T10:11:52.818Z,22.93
2019-05-18T10:14:21.502Z,23.25
2019-05-18T10:16:50.149Z,23.78
2019-05-18T10:19:18.814Z,23.99
2019-05-18T10:21:47.429Z,23.59
2019-05-18T10:24:16.113Z,23.61
2019-05-18T10:26:44.755Z,23.61
2019-05-18T10:29:13.454Z,23.72
2019-05-18T10:31:42.420Z,24.16
2019-05-18T10:34:11.058Z,24.09
2019-05-18T10:36:39.754Z,24.24
2019-05-18T10:39:48.191Z,23.75
2019-05-18T10:42:36.137Z,23.91
2019-05-18T10:45:45.405Z,24.52
2019-05-18T10:48:15.324Z,24.54
2019-05-18T10:51:23.848Z,24.02
2019-05-18T10:53:52.478Z,23.84
2019-05-18T10:56:21.122Z,23.57
2019-05-18T10:58:49.729Z,23.91
2019-05-18T11:01:18.455Z,24.14
2019-05-18T11:03:47.131Z,24.21
2019-05-18T11:06:15.818Z,23.77
2019-05-18T11:08:44.364Z,23.25
2019-05-18T11:11:12.973Z,23.15
2019-05-18T11:13:41.616Z,23.00
2019-05-18T11:16:10.372Z,23.36
2019-05-18T11:18:38.994Z,23.20
2019-05-18T11:21:07.625Z,22.50
2019-05-18T11:23:44.167Z,22.93
2019-05-18T11:26:06.750Z,22.86
2019-05-18T11:28:35.409Z,22.83
2019-05-18T11:31:04.024Z,22.39
2019-05-18T11:33:32.659Z,21.93
2019-05-18T11:36:01.273Z,22.69
2019-05-18T11:38:29.958Z,22.71
2019-05-18T11:40:58.607Z,23.16
2019-05-18T11:43:27.307Z,23.20
2019-05-18T11:45:55.946Z,23.66
2019-05-18T11:48:24.625Z,23.74
2019-05-18T11:50:53.303Z,23.67
2019-05-18T11:53:22.000Z,23.19
2019-05-18T11:55:50.678Z,23.10
2019-05-18T11:58:19.373Z,23.33
2019-05-18T12:00:48.027Z,23.24
2019-05-18T12:03:16.798Z,22.54
2019-05-18T12:05:45.347Z,22.13
2019-05-18T12:08:14.021Z,22.55
2019-05-18T12:10:42.676Z,22.67
2019-05-18T12:13:11.281Z,22.43
2019-05-18T12:15:39.925Z,22.42
2019-05-18T12:18:08.610Z,22.30
2019-05-18T12:20:37.260Z,22.08
2019-05-18T12:23:08.221Z,22.05
2019-05-18T12:25:36.163Z,21.93
2019-05-18T12:28:04.871Z,21.87
2019-05-18T12:30:33.510Z,21.84
2019-05-18T12:33:02.200Z,21.42
2019-05-18T12:35:30.884Z,21.05
2019-05-18T12:37:59.528Z,20.77
2019-05-18T12:40:28.223Z,20.71
2019-05-18T12:42:56.860Z,20.53
2019-05-18T12:45:25.644Z,20.27
2019-05-18T12:47:54.281Z,20.25
2019-05-18T12:51:02.753Z,20.23
2019-05-18T12:53:31.413Z,20.12
2019-05-18T12:56:00.070Z,20.08
2019-05-18T12:58:28.699Z,19.98
2019-05-18T13:00:57.422Z,19.89
2019-05-18T13:03:25.963Z,19.71
2019-05-18T13:05:54.655Z,19.20
2019-05-18T13:08:23.258Z,18.93
2019-05-18T13:10:51.973Z,18.63
2019-05-18T13:13:20.658Z,18.24
2019-05-18T13:15:49.301Z,17.93
2019-05-18T13:18:17.897Z,17.76
2019-05-18T13:20:46.481Z,17.92
2019-05-18T13:23:15.166Z,17.61
2019-05-18T13:25:43.697Z,16.82
2019-05-18T13:28:12.429Z,16.78
2019-05-18T13:30:41.017Z,16.66
2019-05-18T13:33:09.651Z,16.26
2019-05-18T13:35:38.550Z,15.78
2019-05-18T13:38:47.001Z,15.26
2019-05-18T13:41:15.625Z,15.29
2019-05-18T13:43:44.265Z,15.13
2019-05-18T13:46:12.965Z,15.16
2019-05-18T13:48:41.612Z,15.19
2019-05-18T13:51:10.283Z,15.42
2019-05-18T13:53:39.006Z,15.52
2019-05-18T13:56:07.685Z,15.58
2019-05-18T13:58:36.549Z,15.41
2019-05-18T14:01:05.209Z,15.42
2019-05-18T14:03:33.854Z,15.53
2019-05-18T14:06:02.558Z,15.78
2019-05-18T14:08:31.219Z,15.95
2019-05-18T14:10:59.944Z,16.03
2019-05-18T14:13:28.681Z,16.21
2019-05-18T14:15:57.434Z,16.43
2019-05-18T14:18:26.035Z,16.51
2019-05-18T14:20:54.701Z,16.69
2019-05-18T14:23:23.371Z,17.08
2019-05-18T14:25:51.935Z,17.25
2019-05-18T14:28:20.579Z,17.68
2019-05-18T14:30:49.143Z,17.71
2019-05-18T14:33:17.757Z,17.43
2019-05-18T14:35:46.517Z,17.34
2019-05-18T14:38:15.152Z,17.52
2019-05-18T14:40:43.809Z,17.42
2019-05-18T14:43:12.521Z,17.57
2019-05-18T14:45:41.171Z,17.85
2019-05-18T14:48:09.833Z,18.01
2019-05-18T14:50:38.536Z,18.20
2019-05-18T14:53:07.272Z,18.04
2019-05-18T14:55:35.953Z,17.87
2019-05-18T14:58:04.634Z,17.94
2019-05-18T15:00:33.438Z,17.93
2019-05-18T15:03:02.140Z,18.22
2019-05-18T15:05:30.915Z,18.35
2019-05-18T15:07:59.560Z,18.04
2019-05-18T15:10:28.246Z,18.32
2019-05-18T15:12:56.878Z,18.20
2019-05-18T15:15:25.582Z,18.18
2019-05-18T15:17:54.251Z,18.22
2019-05-18T15:20:22.940Z,17.92
2019-05-18T15:22:51.685Z,17.72
2019-05-18T15:26:00.066Z,18.34
2019-05-18T15:28:28.848Z,18.45
2019-05-18T15:30:57.497Z,18.35
2019-05-18T15:33:26.144Z,18.58
2019-05-18T15:35:54.762Z,18.56
2019-05-18T15:38:23.387Z,18.00
2019-05-18T15:40:52.061Z,18.41
2019-05-18T15:43:20.685Z,18.47
2019-05-18T15:45:49.338Z,18.73
2019-05-18T15:48:18.015Z,18.89
2019-05-18T15:50:46.694Z,18.83
2019-05-18T15:53:15.363Z,18.87
2019-05-18T15:55:44.210Z,18.72
2019-05-18T15:58:12.928Z,18.76
2019-05-18T16:00:41.580Z,18.70
2019-05-18T16:03:10.196Z,18.91
2019-05-18T16:05:38.886Z,18.82
2019-05-18T16:08:07.514Z,18.63
2019-05-18T16:10:36.170Z,18.50
2019-05-18T16:13:04.819Z,18.42
2019-05-18T16:15:33.450Z,18.43
2019-05-18T16:18:02.006Z,18.45
2019-05-18T16:20:30.641Z,18.47
2019-05-18T16:22:59.316Z,18.42
2019-05-18T16:25:27.966Z,18.47
2019-05-18T16:27:56.637Z,18.65
2019-05-18T16:30:25.279Z,18.68
2019-05-18T16:32:54.354Z,18.70
2019-05-18T16:35:23.030Z,18.43
2019-05-18T16:37:51.720Z,18.35
2019-05-18T16:43:15.303Z,18.18
2019-05-18T16:45:44.074Z,18.05
2019-05-18T16:48:12.778Z,18.02
2019-05-18T16:50:41.545Z,18.03
2019-05-18T16:53:10.174Z,17.99
2019-05-18T16:55:38.875Z,17.88
2019-05-18T16:58:07.512Z,17.72
2019-05-18T17:00:36.278Z,17.73
2019-05-18T17:03:44.697Z,17.72
2019-05-18T17:06:16.331Z,17.68
2019-05-18T17:08:43.726Z,17.60
2019-05-18T17:11:12.298Z,17.84
2019-05-18T17:13:40.908Z,17.53
2019-05-18T17:16:09.551Z,17.63
2019-05-18T17:18:38.238Z,17.66
2019-05-18T17:21:06.883Z,16.96
2019-05-18T17:23:35.561Z,16.69
2019-05-18T17:26:04.200Z,16.75
2019-05-18T17:28:32.821Z,16.67
2019-05-18T17:31:01.575Z,16.67
2019-05-18T17:33:30.372Z,16.73
2019-05-18T17:36:00.629Z,16.64
2019-05-18T17:38:48.614Z,16.59
2019-05-18T17:41:17.287Z,16.75
2019-05-18T17:43:45.870Z,16.76
2019-05-18T17:46:14.571Z,16.75
2019-05-18T17:48:43.307Z,16.80
2019-05-18T17:51:12.207Z,16.76
2019-05-18T17:53:40.857Z,16.78
2019-05-18T17:58:45.384Z,16.78
2019-05-18T18:01:33.185Z,16.70
2019-05-18T18:04:02.041Z,16.71
2019-05-18T18:06:30.527Z,16.72
2019-05-18T18:08:59.228Z,16.66
2019-05-18T18:11:47.123Z,16.75
2019-05-18T18:14:15.791Z,16.91
2019-05-18T18:16:44.552Z,16.96
2019-05-18T18:19:13.291Z,16.88
2019-05-18T18:21:41.995Z,16.81
2019-05-18T18:24:10.636Z,16.45
2019-05-18T18:26:39.329Z,16.37
2019-05-18T18:29:08.081Z,16.50
2019-05-18T18:31:36.767Z,16.40
2019-05-18T18:34:05.442Z,16.19
2019-05-18T18:36:34.151Z,16.09
2019-05-18T18:39:22.131Z,15.91
2019-05-18T18:41:50.799Z,15.80
2019-05-18T18:44:19.402Z,15.73
2019-05-18T18:47:27.929Z,15.83
2019-05-18T18:49:56.716Z,15.70
2019-05-18T18:52:25.355Z,15.60
2019-05-18T18:55:33.816Z,15.37
2019-05-18T18:58:02.462Z,15.53
2019-05-18T19:00:31.218Z,15.36
2019-05-18T19:02:59.882Z,15.28
2019-05-18T19:05:28.482Z,15.12
2019-05-18T19:07:57.605Z,15.12
2019-05-18T19:10:26.249Z,15.16
2019-05-18T19:12:54.938Z,15.16
2019-05-18T19:15:23.575Z,15.13
2019-05-18T19:17:52.445Z,14.95
2019-05-18T19:20:40.414Z,15.07
2019-05-18T19:23:09.088Z,14.88
2019-05-18T19:25:37.748Z,14.82
2019-05-18T19:28:06.439Z,14.67
2019-05-18T19:30:35.102Z,14.65
2019-05-18T19:33:03.788Z,14.51
2019-05-18T19:35:32.474Z,14.73
2019-05-18T19:38:01.012Z,14.82
2019-05-18T19:40:29.705Z,14.92
2019-05-18T19:42:58.384Z,14.80
2019-05-18T19:45:34.289Z,14.59
2019-05-18T19:48:02.848Z,14.45
2019-05-18T19:50:31.529Z,14.44
2019-05-18T19:53:00.139Z,14.32
2019-05-18T19:55:28.708Z,14.29
2019-05-18T20:00:51.930Z,14.21
2019-05-18T20:03:20.579Z,14.13
2019-05-18T20:05:49.436Z,14.11
2019-05-18T20:08:18.025Z,14.09
2019-05-18T20:10:46.684Z,14.09
2019-05-18T20:13:15.475Z,13.99
2019-05-18T20:15:44.067Z,13.98
2019-05-18T20:18:12.816Z,13.93
2019-05-18T20:20:41.395Z,14.00
2019-05-18T20:23:10.000Z,13.90
2019-05-18T20:25:38.652Z,13.84
2019-05-18T20:28:07.328Z,13.80
2019-05-18T20:30:36.010Z,13.77
2019-05-18T20:33:04.690Z,13.94
2019-05-18T20:35:33.334Z,13.84
2019-05-18T20:38:02.277Z,13.77
2019-05-18T20:40:31.031Z,13.78
2019-05-18T20:42:59.796Z,13.74
2019-05-18T20:45:28.507Z,13.71
2019-05-18T20:47:57.185Z,13.65
2019-05-18T20:50:25.912Z,13.61
2019-05-18T20:52:54.577Z,13.61
2019-05-18T20:55:42.484Z,13.58
2019-05-18T20:58:11.101Z,13.45
2019-05-18T21:00:39.734Z,13.50
2019-05-18T21:03:30.397Z,13.32
2019-05-18T21:05:58.926Z,13.30
2019-05-18T21:08:27.586Z,13.37
2019-05-18T21:10:56.185Z,13.31
2019-05-18T21:13:24.800Z,13.19
2019-05-18T21:15:53.380Z,13.38
2019-05-18T21:18:22.490Z,13.30
2019-05-18T21:20:51.059Z,13.20
2019-05-18T21:23:19.747Z,13.14
2019-05-18T21:25:48.399Z,13.01
2019-05-18T21:28:17.087Z,12.93
2019-05-18T21:31:04.928Z,12.86
2019-05-18T21:33:33.617Z,12.82
2019-05-18T21:36:02.612Z,12.80
2019-05-18T21:38:32.693Z,12.75
2019-05-18T21:41:01.370Z,12.73
2019-05-18T21:43:30.141Z,12.66
2019-05-18T21:45:58.744Z,12.59
2019-05-18T21:48:27.386Z,12.61
2019-05-18T21:50:55.990Z,12.67
2019-05-18T21:53:24.686Z,12.62
2019-05-18T21:55:53.292Z,12.61
2019-05-18T21:58:21.976Z,12.60
2019-05-18T22:00:50.683Z,12.56
2019-05-18T22:03:19.287Z,12.56
2019-05-18T22:05:47.915Z,12.55
2019-05-18T22:08:16.543Z,12.53
2019-05-18T22:10:45.155Z,12.56
2019-05-18T22:13:13.805Z,12.56
2019-05-18T22:15:42.418Z,12.57
2019-05-18T22:18:23.631Z,12.56
2019-05-18T22:20:43.941Z,12.57
2019-05-18T22:23:11.833Z,12.58
2019-05-18T22:25:40.515Z,12.60
2019-05-18T22:28:09.151Z,12.60
2019-05-18T22:30:37.851Z,12.46
2019-05-18T22:33:06.517Z,12.47
2019-05-18T22:35:35.197Z,12.49
2019-05-18T22:38:03.972Z,12.51
2019-05-18T22:40:32.657Z,12.41
2019-05-18T22:43:01.295Z,12.39
2019-05-18T22:45:29.978Z,12.35
2019-05-18T22:47:58.552Z,12.27
2019-05-18T22:50:27.125Z,12.23
2019-05-18T22:52:55.762Z,12.26
2019-05-18T22:55:24.358Z,12.24
2019-05-18T22:57:53.028Z,12.23
2019-05-18T23:00:21.741Z,12.23
2019-05-18T23:05:45.111Z,12.30
2019-05-18T23:08:13.785Z,12.27
2019-05-18T23:10:42.437Z,12.26
2019-05-18T23:13:11.068Z,12.26
2019-05-18T23:15:39.773Z,12.27
2019-05-18T23:18:08.336Z,12.32
2019-05-18T23:20:36.914Z,12.26
2019-05-18T23:23:05.561Z,12.25
2019-05-18T23:25:34.248Z,12.28
2019-05-18T23:28:02.969Z,12.26
2019-05-18T23:30:31.592Z,12.18
2019-05-18T23:33:00.245Z,12.22
2019-05-18T23:35:28.933Z,12.19
2019-05-18T23:37:57.578Z,12.18
2019-05-18T23:40:26.249Z,12.21
2019-05-18T23:42:54.752Z,12.12
2019-05-18T23:45:42.691Z,12.07
2019-05-18T23:48:11.364Z,12.03
2019-05-18T23:50:59.303Z,12.03
2019-05-18T23:53:28.013Z,12.02
2019-05-18T23:55:56.629Z,12.15
2019-05-18T23:58:25.275Z,12.17
